Flight Track Log - Related Links

Times and Time Zones

All times are in EST time to prevent confusion due to time zone crossing. See the N115WF flight status page for this flight to view local times or setup timezone preferences in your user account.

Time Position Orientation Groundspeed Altitude Reporting Facility
EST Latitude Longitude Course Direction KTS MPH feet Rate Location/Type
Sun 12:04:50 PM 32.1014 -110.9253 133° Southeast 192 221 3,400  Level Albuquerque Center
Sun 12:05:20 PM 32.0817 -110.9006 133° Southeast 219 252 4,600 3,474 Climbing Albuquerque Center
Sun 12:06:06 PM 32.0525 -110.8503 124° Southeast 250 288 7,800 4,500 Climbing Albuquerque Center
Sun 12:06:20 PM 32.0411 -110.8258 119° Southeast 262 302 9,100 3,148 Climbing Albuquerque Center
Sun 12:07:07 PM 32.0547 -110.7711 74° East 282 325 11,000 2,752 Climbing Albuquerque Center
Sun 12:08:09 PM 32.1231 -110.7725 359° North 275 316 14,100 2,613 Climbing Albuquerque Center
Sun 12:09:11 PM 32.1922 -110.8175 331° Northwest 279 321 16,400 2,081 Climbing Albuquerque Center
Sun 12:10:13 PM 32.2817 -110.8219 358° North 318 366 18,400 2,226 Climbing Albuquerque Center
Sun 12:11:15 PM 32.3961 -110.8217 360° North 339 390 21,000 2,293 Climbing Albuquerque Center
Sun 12:12:16 PM 32.4947 -110.8222 360° North 350 403 23,100 1,854 Climbing Albuquerque Center
Sun 12:13:18 PM 32.5964 -110.8211 North 361 415 24,800 1,597 Climbing Albuquerque Center
Sun 12:14:20 PM 32.7014 -110.8194 North 370 426 26,400 1,645 Climbing Albuquerque Center
Sun 12:15:22 PM 32.8078 -110.8186 360° North 379 436 28,200 1,548 Climbing Albuquerque Center
Sun 12:16:24 PM 32.9167 -110.8161 North 387 445 29,600 1,268 Climbing Albuquerque Center
Sun 12:17:25 PM 33.0272 -110.8153 360° North 394 453 30,800 1,317 Climbing Albuquerque Center
Sun 12:18:27 PM 33.1628 -110.8144 360° North 404 465 32,300 1,355 Climbing Albuquerque Center
Sun 12:19:29 PM 33.2758 -110.8122 North 407 468 33,600 968 Climbing Albuquerque Center
Sun 12:20:31 PM 33.3869 -110.8111 360° North 403 464 34,300 629 Climbing Albuquerque Center
Sun 12:21:33 PM 33.4989 -110.8106 360° North 403 464 34,900 634 Climbing Albuquerque Center
Sun 12:22:34 PM 33.6111 -110.8103 360° North 404 465 35,600 537 Climbing Albuquerque Center
Sun 12:23:36 PM 33.7239 -110.8092 360° North 405 466 36,000 194 Climbing Albuquerque Center
Sun 12:24:38 PM 33.8619 -110.8081 360° North 411 473 36,000  Level Albuquerque Center
Sun 12:25:40 PM 33.9783 -110.8069 360° North 416 479 36,000  Level Albuquerque Center
Sun 12:26:42 PM 34.0928 -110.8058 360° North 416 479 36,000 -98 Level Albuquerque Center
Sun 12:27:43 PM 34.2006 -110.8044 North 402 463 35,800 -390 Descending Albuquerque Center
Sun 12:28:45 PM 34.3061 -110.8033 360° North 388 447 35,200 -871 Descending Albuquerque Center
Sun 12:29:47 PM 34.4314 -110.8028 360° North 381 438 34,000 -581 Descending Albuquerque Center
Sun 12:30:49 PM 34.5339 -110.8022 360° North 374 430 34,000  Level Albuquerque Center
Sun 12:31:51 PM 34.6328 -110.8008 North 362 417 34,000  Level Albuquerque Center
Sun 12:32:53 PM 34.7314 -110.7997 North 357 411 34,000  Level Albuquerque Center
Sun 12:33:55 PM 34.8356 -110.7978 North 367 422 34,000  Level Albuquerque Center
Sun 12:34:56 PM 34.9411 -110.7969 360° North 376 433 34,000 -49 Level Albuquerque Center
Sun 12:35:58 PM 35.0667 -110.7831 North 388 447 33,900 -290 Descending Albuquerque Center
Sun 12:37:00 PM 35.1639 -110.7294 24° Northeast 402 463 33,400 -435 Descending Albuquerque Center
Sun 12:38:02 PM 35.2767 -110.6550 28° Northeast 411 473 33,000 -194 Descending Albuquerque Center
Sun 12:39:04 PM 35.3722 -110.5908 29° Northeast 410 472 33,000  Level Albuquerque Center
Sun 12:40:06 PM 35.4831 -110.5189 28° Northeast 405 466 33,000  Level Albuquerque Center
Sun 12:41:08 PM 35.5756 -110.4564 29° Northeast 400 460 33,000  Level Albuquerque Center
Sun 12:42:10 PM 35.6847 -110.3850 28° Northeast 397 457 33,000  Level Albuquerque Center
Sun 12:43:12 PM 35.7758 -110.3228 29° Northeast 393 452 33,000  Level Albuquerque Center
Sun 12:44:14 PM 35.8842 -110.2522 28° Northeast 393 452 33,000  Level Albuquerque Center
Sun 12:45:16 PM 35.9758 -110.1911 28° Northeast 391 450 33,000  Level Albuquerque Center
Sun 12:46:18 PM 36.0672 -110.1300 28° Northeast 390 449 33,000  Level Albuquerque Center
Sun 12:47:20 PM 36.1742 -110.0589 28° Northeast 389 448 33,000  Level Albuquerque Center
Sun 12:48:36 PM 36.2944 -109.9781 28° Northeast 388 447 33,000  Level Denver Center
Sun 12:49:38 PM 36.3858 -109.9161 29° Northeast 389 448 33,000  Level Denver Center
Sun 12:50:40 PM 36.4908 -109.8450 29° Northeast 386 444 33,000  Level Denver Center
Sun 12:51:43 PM 36.5803 -109.7839 29° Northeast 383 441 33,000  Level Denver Center
Sun 12:52:45 PM 36.6844 -109.7128 29° Northeast 382 440 33,000  Level Denver Center
Sun 12:53:47 PM 36.7742 -109.6511 29° Northeast 382 440 33,000  Level Denver Center
Sun 12:54:49 PM 36.8783 -109.5797 29° Northeast 381 438 33,000  Level Denver Center
Sun 12:55:51 PM 36.9681 -109.5189 28° Northeast 382 440 33,000  Level Denver Center
Sun 12:56:53 PM 37.0717 -109.4469 29° Northeast 381 438 33,000  Level Denver Center
Sun 12:57:55 PM 37.1614 -109.3850 29° Northeast 382 440 33,000  Level Denver Center
Sun 12:58:57 PM 37.2503 -109.3225 29° Northeast 383 441 33,000  Level Denver Center
Sun 01:00:00 PM 37.3539 -109.2536 28° Northeast 379 436 33,000  Level Denver Center
Sun 01:01:02 PM 37.4419 -109.1875 31° Northeast 383 441 33,000  Level Denver Center
Sun 01:02:04 PM 37.5456 -109.1172 28° Northeast 378 435 33,000  Level Denver Center
Sun 01:03:06 PM 37.6339 -109.0556 29° Northeast 378 435 33,000  Level Denver Center
Sun 01:04:08 PM 37.7356 -108.9822 30° Northeast 377 434 33,000 -242 Level Denver Center
Sun 01:05:10 PM 37.8222 -108.9214 29° Northeast 372 428 32,500 -871 Descending Denver Center
Sun 01:06:12 PM 37.8983 -108.8164 47° Northeast 367 422 31,200 -1,210 Descending Denver Center
Sun 01:07:14 PM 37.9589 -108.7297 48° Northeast 350 403 30,000 -1,065 Descending Denver Center
Sun 01:08:16 PM 37.9094 -108.5917 114° Southeast 438 504 29,000 -484 Descending Denver Center
Sun 01:09:18 PM 37.8258 -108.6261 198° South 360 414 29,000  Level Denver Center
Sun 01:10:21 PM 37.8372 -108.7181 279° West 264 304 29,000  Level Denver Center
Sun 01:11:23 PM 37.8256 -108.8125 261° West 277 319 29,000  Level Denver Center
Sun 01:12:25 PM 37.8089 -108.9214 259° West 280 322 29,000  Level Denver Center
Sun 01:13:27 PM 37.8117 -109.0050 272° West 251 289 29,000  Level Denver Center
Sun 01:14:29 PM 37.8631 -109.0514 325° Northwest 220 253 29,000  Level Denver Center
Sun 01:15:31 PM 37.9219 -108.9806 43° Northeast 313 360 29,000 -387 Level Denver Center
Sun 01:16:33 PM 37.9842 -108.8972 47° Northeast 340 391 28,200 -968 Descending Denver Center
Sun 01:17:35 PM 38.0606 -108.7928 47° Northeast 363 418 27,000 -581 Descending Denver Center
Sun 01:18:37 PM 38.1331 -108.6844 50° Northeast 357 411 27,000  Level Denver Center
Sun 01:19:40 PM 38.1881 -108.6067 48° Northeast 321 369 27,000  Level Denver Center
Sun 01:20:42 PM 38.2517 -108.5208 47° Northeast 301 346 27,000  Level Denver Center
Sun 01:21:44 PM 38.3056 -108.4456 48° Northeast 301 346 27,000 -242 Level Denver Center
Sun 01:22:46 PM 38.3686 -108.3567 48° Northeast 302 348 26,500 -774 Descending Denver Center
Sun 01:23:48 PM 38.4203 -108.2828 48° Northeast 294 338 25,400 -1,258 Descending Denver Center
Sun 01:24:50 PM 38.4744 -108.2064 48° Northeast 264 304 23,900 -1,403 Descending Denver Center
Sun 01:25:52 PM 38.5186 -108.1433 48° Northeast 252 290 22,500 -1,306 Descending Denver Center
Sun 01:26:54 PM 38.5619 -108.0844 47° Northeast 241 277 21,200 -1,200 Descending Denver Center
Sun 01:27:57 PM 38.6081 -108.0167 49° Northeast 229 264 20,000 -576 Descending Denver Center
Sun 01:28:59 PM 38.6489 -107.9592 48° Northeast 228 262 20,000  Level Denver Center
Sun 01:30:01 PM 38.6967 -107.8922 48° Northeast 229 264 20,000  Level Denver Center
Sun 01:31:03 PM 38.7389 -107.8303 49° Northeast 238 274 20,000  Level Denver Center
Sun 01:32:05 PM 38.7917 -107.7561 48° Northeast 249 287 20,000  Level Denver Center
Sun 01:33:07 PM 38.8378 -107.6875 49° Northeast 261 300 20,000  Level Denver Center
Sun 01:34:09 PM 38.8903 -107.6122 48° Northeast 256 295 20,000  Level Denver Center
Sun 01:35:11 PM 38.9375 -107.5461 47° Northeast 260 299 20,000  Level Denver Center
Sun 01:36:13 PM 38.9903 -107.4683 49° Northeast 260 299 20,000  Level Denver Center
Sun 01:37:15 PM 39.0361 -107.4019 48° Northeast 258 297 20,000  Level Denver Center
Sun 01:38:18 PM 39.0875 -107.3269 49° Northeast 254 292 20,000  Level Denver Center
Sun 01:39:20 PM 39.1347 -107.2650 45° Northeast 253 291 20,000  Level Denver Center
Sun 01:40:22 PM 39.1911 -107.1983 42° Northeast 248 285 20,000  Level Denver Center
Sun 01:41:24 PM 39.2414 -107.1364 44° Northeast 260 299 20,000  Level Denver Center
Sun 01:42:26 PM 39.2944 -107.0714 43° Northeast 262 302 20,000  Level Denver Center
Sun 01:43:28 PM 39.2864 -106.9658 96° East 318 366 20,000 -290 Level Denver Center
Sun 01:44:30 PM 39.2494 -106.8297 109° East 339 390 19,400 -919 Descending Denver Center
Sun 01:45:32 PM 39.2214 -106.7167 108° East 336 387 18,100 -774 Descending Denver Center
Sun 01:46:34 PM 39.2275 -106.6133 86° East 311 358 17,800 -144 Descending Denver Center
Sun 01:47:37 PM 39.2894 -106.6164 358° North 238 274 17,800 96 Level Denver Center
Sun 01:48:39 PM 39.3350 -106.6567 326° Northwest 227 261 18,000 1,016 Climbing Denver Center
Sun 01:49:41 PM 39.3644 -106.7444 293° West 242 278 19,900 1,452 Climbing Denver Center
Sun 01:50:43 PM 39.4311 -106.7661 346° North 230 265 21,000 532 Climbing Denver Center
Sun 01:51:45 PM 39.4850 -106.7894 342° North 214 246 21,000  Level Denver Center
Sun 01:52:48 PM 39.5422 -106.8097 345° North 222 255 21,000  Level Denver Center
Sun 01:53:50 PM 39.5964 -106.8486 331° Northwest 218 251 21,000  Level Denver Center
Sun 01:54:52 PM 39.5950 -106.9328 269° West 243 280 21,000 -339 Level Denver Center
Sun 01:55:54 PM 39.5914 -107.0269 267° West 236 272 20,300 -1,113 Descending Denver Center
Sun 01:56:56 PM 39.5275 -107.0672 206° Southwest 311 358 18,700 -1,113 Descending Denver Center
Sun 01:57:58 PM 39.4322 -107.0142 157° South 331 381 18,000 -387 Descending Denver Center
Sun 01:59:00 PM 39.3506 -106.9572 152° Southeast 337 388 17,900 -97 Descending Denver Center
Sun 02:00:02 PM 39.3069 -106.8617 121° Southeast 322 371 17,800  Descending Denver Center
Sun 02:01:05 PM 39.2836 -106.7542 106° East 316 364 17,900 48 Climbing Denver Center
Sun 02:02:07 PM 39.3019 -106.6619 76° East 292 336 17,900 -726 Level Denver Center
Sun 02:03:09 PM 39.3706 -106.6886 343° North 223 257 16,400 -878 Descending Denver Center
Sun 02:04:10 PM 39.4317 -106.7258 335° Northwest 228 262 16,100 -145 Descending Denver Center
Sun 02:05:13 PM 39.4872 -106.7636 332° Northwest 234 269 16,100  Level Denver Center
Sun 02:06:15 PM 39.5250 -106.8286 307° West 229 264 16,100 97 Level Denver Center
Sun 02:07:17 PM 39.4931 -106.9006 240° Southwest 239 275 16,300 48 Climbing Denver Center
Sun 02:08:19 PM 39.4539 -106.9719 235° Southwest 223 257 16,200 -387 Descending Denver Center
Sun 02:09:21 PM 39.3981 -106.9606 171° South 235 270 15,500 -774 Descending Denver Center
Sun 02:10:23 PM 39.3442 -106.9275 155° Southeast 220 253 14,600 -1,452 Descending Denver Center
Sun 02:11:25 PM 39.2817 -106.8961 159° South 206 237 12,500 -242 Descending Denver Center
Sun 02:12:27 PM 39.2572 -106.9206 218° Southwest 187 215 14,100 1,632 Climbing Denver Center
Sun 02:13:30 PM 39.2983 -106.9744 315° West 217 250 15,900 768 Climbing Denver Center
Sun 02:14:32 PM 39.3508 -107.0231 324° Northwest 228 262 15,700 -726 Descending Denver Center
Sun 02:15:34 PM 39.3822 -107.0950 299° West 229 264 14,400 -968 Descending Denver Center
Sun 02:16:36 PM 39.4361 -107.1031 353° North 241 277 13,700 -339 Descending Denver Center
Sun 02:17:38 PM 39.4572 -107.0111 73° East 265 305 13,700 -48 Level Denver Center
Sun 02:18:40 PM 39.3967 -106.9511 143° Southeast 275 316 13,600 -242 Descending Denver Center
Sun 02:19:42 PM 39.3458 -106.9278 160° South 205 236 13,200 -960 Descending Denver Center
Sun 02:20:45 PM 39.2964 -106.9042 160° South 190 219 11,600 -1,920 Descending Denver Center
Sun 02:21:47 PM 39.2414 -106.8744 157° South 190 219 9,200 -2,323 Descending Denver Center
Sun 02:23:00 PM 39.2167 -106.8667 159° South  Level FlightAware Approximate

Login

Don't have an account? Register now (free) for customized features, flight alerts, and more!